Pueblo Army Depot, Colorado
Current Conditions -  °F | °C
As of 11:53 AM on Monday 20 Oct 2014 (Local Time) from KPUB Reporting Station
Clear Clear  
Wind Chill: 66°   Ceiling: Unl
Heat Index: 66°   Visibility: 10mi
Dew Point: 41°   Wind: 5mph
Humidity: 40%   Direction: NA
Pressure: 30.18"   Gusts: NA
Location:  38.2964°N, 104.538°W
Report Text: KPUB 201753Z VRB04KT 10SM CLR 19/05 A3018 RMK AO2 SLP184 T01890050 10189 20056 58009
Loading
Personal Weather Stations






























Interactive Weather Map
Tropical Storm Tracking
New forecast layout! Learn more

10-Day Weather Forecast

Advertisements
Track Severe Weather on mobile